createdAt,value
2023-04-05T00:01:08.103Z,7.80
2023-04-05T00:06:13.533Z,6.57
2023-04-05T00:11:17.364Z,6.55
2023-04-05T00:16:20.889Z,6.15
2023-04-05T00:21:24.940Z,5.55
2023-04-05T00:26:28.401Z,6.05
2023-04-05T00:31:31.222Z,5.15
2023-04-05T00:36:35.868Z,7.13
2023-04-05T00:41:38.244Z,6.03
2023-04-05T00:46:40.901Z,8.25
2023-04-05T00:51:44.056Z,4.93
2023-04-05T00:56:46.812Z,8.20
2023-04-05T01:02:13.865Z,5.85
2023-04-05T01:07:41.666Z,6.30
2023-04-05T01:12:44.807Z,6.55
2023-04-05T01:17:47.426Z,6.18
2023-04-05T01:23:01.306Z,7.38
2023-04-05T01:28:24.694Z,6.13
2023-04-05T01:33:50.264Z,8.75
2023-04-05T01:38:56.318Z,7.93
2023-04-05T01:43:58.563Z,9.18
2023-04-05T01:49:00.910Z,7.22
2023-04-05T01:54:03.133Z,7.25
2023-04-05T01:59:05.418Z,6.70
2023-04-05T02:04:07.656Z,6.68
2023-04-05T02:09:10.180Z,8.32
2023-04-05T02:14:12.702Z,10.00
2023-04-05T02:19:16.383Z,9.77
2023-04-05T02:24:18.648Z,8.43
2023-04-05T02:29:21.247Z,7.97
2023-04-05T02:34:23.997Z,9.40
2023-04-05T02:39:26.767Z,8.77
2023-04-05T02:44:29.996Z,6.85
2023-04-05T02:49:32.319Z,8.38
2023-04-05T02:54:34.503Z,5.80
2023-04-05T02:59:38.714Z,7.00
2023-04-05T03:04:41.318Z,8.65
2023-04-05T03:09:44.997Z,7.72
2023-04-05T03:14:47.283Z,9.70
2023-04-05T03:19:49.566Z,10.13
2023-04-05T03:24:52.807Z,11.68
2023-04-05T03:29:55.335Z,8.48
2023-04-05T03:34:57.589Z,7.13
2023-04-05T03:39:59.790Z,8.43
2023-04-05T03:45:01.961Z,6.78
2023-04-05T03:50:05.254Z,7.10
2023-04-05T03:55:08.395Z,10.20
2023-04-05T04:00:18.156Z,7.53
2023-04-05T04:05:22.162Z,8.85
2023-04-05T04:10:24.526Z,11.45
2023-04-05T04:15:26.897Z,7.72
2023-04-05T04:20:29.634Z,7.55
2023-04-05T04:25:31.878Z,9.55
2023-04-05T04:30:35.256Z,10.80
2023-04-05T04:35:40.637Z,12.52
2023-04-05T04:40:51.277Z,13.10
2023-04-05T04:45:55.601Z,17.35
2023-04-05T04:51:00.190Z,17.85
2023-04-05T04:56:06.739Z,13.77
2023-04-05T05:01:12.392Z,26.90
2023-04-05T05:06:18.332Z,13.77
2023-04-05T05:11:21.216Z,19.52
2023-04-05T05:16:23.958Z,15.80
2023-04-05T05:21:27.076Z,11.65
2023-04-05T05:26:29.312Z,18.52
2023-04-05T05:31:33.385Z,9.82
2023-04-05T05:36:36.376Z,7.55
2023-04-05T05:41:38.748Z,18.00
2023-04-05T05:46:41.414Z,17.15
2023-04-05T05:51:44.037Z,14.05
2023-04-05T05:56:46.504Z,11.90
2023-04-05T06:01:51.753Z,7.55
2023-04-05T06:06:55.016Z,6.20
2023-04-05T06:11:57.611Z,7.32
2023-04-05T06:17:00.123Z,7.45
2023-04-05T06:22:02.494Z,8.35
2023-04-05T06:27:05.822Z,7.20
2023-04-05T06:32:08.231Z,7.10
2023-04-05T06:37:10.634Z,10.20
2023-04-05T06:42:14.504Z,6.95
2023-04-05T06:47:16.923Z,6.15
2023-04-05T06:52:19.201Z,10.25
2023-04-05T06:57:21.485Z,13.27
2023-04-05T07:02:23.817Z,5.13
2023-04-05T07:07:26.234Z,5.63
2023-04-05T07:12:46.687Z,5.53
2023-04-05T07:17:49.368Z,5.72
2023-04-05T07:22:51.727Z,5.90
2023-04-05T07:27:54.212Z,3.65
2023-04-05T07:32:56.525Z,5.80
2023-04-05T07:37:58.863Z,5.75
2023-04-05T07:43:01.226Z,4.55
2023-04-05T07:48:03.689Z,3.67
2023-04-05T07:53:06.372Z,4.90
2023-04-05T07:58:10.111Z,4.68
2023-04-05T08:03:12.416Z,3.28
2023-04-05T08:08:14.971Z,2.83
2023-04-05T08:13:17.693Z,2.95
2023-04-05T08:18:20.024Z,2.65
2023-04-05T08:23:22.872Z,2.88
2023-04-05T08:28:25.163Z,3.67
2023-04-05T08:33:28.885Z,1.58
2023-04-05T08:38:31.288Z,2.15
2023-04-05T08:43:48.959Z,3.47
2023-04-05T08:48:51.442Z,2.95
2023-04-05T08:53:54.285Z,6.90
2023-04-05T08:59:06.368Z,2.42
2023-04-05T09:04:14.862Z,3.38
2023-04-05T09:09:18.070Z,2.75
2023-04-05T09:14:21.697Z,2.65
2023-04-05T09:19:24.119Z,3.08
2023-04-05T09:24:37.406Z,1.17
2023-04-05T09:29:42.205Z,3.10
2023-04-05T09:34:45.193Z,0.93
2023-04-05T09:39:51.167Z,0.98
2023-04-05T09:44:58.164Z,5.85
2023-04-05T09:50:06.901Z,1.33
2023-04-05T09:55:10.477Z,0.90
2023-04-05T10:00:21.059Z,1.35
2023-04-05T10:05:28.518Z,1.95
2023-04-05T10:10:36.378Z,2.28
2023-04-05T10:15:38.604Z,2.08
2023-04-05T10:20:43.453Z,4.15
2023-04-05T10:25:54.780Z,1.67
2023-04-05T10:31:30.555Z,5.80
2023-04-05T10:37:00.207Z,2.40
2023-04-05T10:42:20.033Z,2.20
2023-04-05T10:47:25.048Z,2.40
2023-04-05T10:52:29.084Z,2.05
2023-04-05T10:57:32.841Z,2.90
2023-04-05T11:02:35.025Z,1.23
2023-04-05T11:07:50.001Z,4.22
2023-04-05T11:12:57.597Z,1.92
2023-04-05T11:18:07.010Z,6.53
2023-04-05T11:23:10.532Z,0.73
2023-04-05T11:28:30.425Z,0.90
2023-04-05T11:33:40.251Z,3.50
2023-04-05T11:38:45.838Z,3.55
2023-04-05T11:43:48.482Z,0.80
2023-04-05T11:48:51.472Z,7.10
2023-04-05T11:53:53.600Z,4.72
2023-04-05T11:58:59.605Z,1.75
2023-04-05T12:04:01.964Z,4.78
2023-04-05T12:09:07.934Z,2.35
2023-04-05T12:14:10.130Z,1.40
2023-04-05T12:19:12.317Z,3.67
2023-04-05T12:24:14.805Z,2.55
2023-04-05T12:29:17.829Z,1.65
2023-04-05T12:34:27.847Z,0.95
2023-04-05T12:39:31.938Z,1.45
2023-04-05T12:44:35.800Z,1.00
2023-04-05T12:49:39.128Z,1.65
2023-04-05T12:54:41.317Z,7.05
2023-04-05T12:59:43.464Z,1.73
2023-04-05T13:04:45.794Z,1.77
2023-04-05T13:09:48.050Z,1.92
2023-04-05T13:14:50.496Z,4.03
2023-04-05T13:19:52.682Z,1.40
2023-04-05T13:24:54.907Z,7.22
2023-04-05T13:29:57.170Z,1.08
2023-04-05T13:34:59.328Z,2.13
2023-04-05T13:40:02.092Z,0.80
2023-04-05T13:45:05.455Z,2.33
2023-04-05T13:50:08.270Z,0.60
2023-04-05T13:55:11.044Z,0.82
2023-04-05T14:00:14.081Z,1.98
2023-04-05T14:05:17.610Z,3.90
2023-04-05T14:10:21.899Z,31.30
2023-04-05T14:15:24.173Z,4.47
2023-04-05T14:20:26.456Z,1.95
2023-04-05T14:25:28.696Z,0.90
2023-04-05T14:30:31.591Z,2.05
2023-04-05T14:35:34.278Z,4.43
2023-04-05T14:40:36.572Z,1.73
2023-04-05T14:45:39.061Z,1.77
2023-04-05T14:50:41.565Z,1.95
2023-04-05T14:55:43.896Z,4.97
2023-04-05T15:00:47.647Z,6.07
2023-04-05T15:05:49.936Z,4.90
2023-04-05T15:10:52.592Z,4.82
2023-04-05T15:15:54.892Z,9.13
2023-04-05T15:20:57.718Z,6.50
2023-04-05T15:25:59.967Z,8.00
2023-04-05T15:31:02.361Z,11.73
2023-04-05T15:36:05.170Z,6.63
2023-04-05T15:41:08.841Z,6.80
2023-04-05T15:46:11.457Z,6.25
2023-04-05T15:51:13.902Z,8.73
2023-04-05T15:56:16.431Z,4.45
2023-04-05T16:01:18.882Z,7.60
2023-04-05T16:06:25.193Z,6.45
2023-04-05T16:11:27.690Z,11.18
2023-04-05T16:16:38.597Z,6.07
2023-04-05T16:21:48.159Z,5.60
2023-04-05T16:26:50.574Z,5.03
2023-04-05T16:31:53.575Z,8.88
2023-04-05T16:36:55.899Z,6.68
2023-04-05T16:41:58.137Z,7.50
2023-04-05T16:47:00.296Z,3.58
2023-04-05T16:52:02.531Z,4.05
2023-04-05T16:57:04.880Z,3.15
2023-04-05T17:02:07.839Z,5.85
2023-04-05T17:07:10.091Z,16.40
2023-04-05T17:12:12.540Z,7.05
2023-04-05T17:17:15.024Z,7.00
2023-04-05T17:22:17.431Z,6.57
2023-04-05T17:27:19.553Z,7.13
2023-04-05T17:32:21.905Z,6.82
2023-04-05T17:37:24.318Z,10.18
2023-04-05T17:42:26.428Z,12.30
2023-04-05T17:47:28.655Z,11.18
2023-04-05T17:52:31.672Z,10.77
2023-04-05T17:57:33.855Z,11.95
2023-04-05T18:02:37.796Z,13.93
2023-04-05T18:07:40.494Z,13.10
2023-04-05T18:12:42.883Z,18.02
2023-04-05T18:17:46.021Z,16.25
2023-04-05T18:22:48.185Z,6.40
2023-04-05T18:27:50.489Z,10.85
2023-04-05T18:32:52.701Z,13.02
2023-04-05T18:37:54.914Z,16.10
2023-04-05T18:42:57.067Z,20.27
2023-04-05T18:48:01.011Z,9.73
2023-04-05T18:53:03.326Z,9.65
2023-04-05T18:58:05.863Z,11.52
2023-04-05T19:03:08.209Z,12.57
2023-04-05T19:08:10.552Z,9.88
2023-04-05T19:13:12.715Z,9.60
2023-04-05T19:18:14.920Z,12.98
2023-04-05T19:23:17.048Z,16.80
2023-04-05T19:28:19.251Z,18.08
2023-04-05T19:33:21.902Z,12.18
2023-04-05T19:38:24.523Z,16.38
2023-04-05T19:43:27.504Z,24.10
2023-04-05T19:48:41.183Z,20.83
2023-04-05T19:53:49.593Z,14.95
2023-04-05T19:59:04.460Z,11.40
2023-04-05T20:04:20.143Z,10.20
2023-04-05T20:09:25.159Z,15.05
2023-04-05T20:14:41.309Z,16.33
2023-04-05T20:20:01.153Z,9.57
2023-04-05T20:25:32.093Z,10.65
2023-04-05T20:30:34.548Z,7.68
2023-04-05T20:35:37.955Z,10.68
2023-04-05T20:40:40.189Z,6.45
2023-04-05T20:45:42.316Z,8.30
2023-04-05T20:50:44.469Z,8.50
2023-04-05T20:55:48.589Z,5.68
2023-04-05T21:00:51.008Z,6.65
2023-04-05T21:05:53.367Z,4.70
2023-04-05T21:10:56.224Z,6.10
2023-04-05T21:15:59.238Z,4.40
2023-04-05T21:21:01.686Z,5.43
2023-04-05T21:26:04.810Z,6.82
2023-04-05T21:31:07.342Z,8.32
2023-04-05T21:36:09.651Z,7.35
2023-04-05T21:41:11.880Z,7.35
2023-04-05T21:46:14.183Z,11.30
2023-04-05T21:51:16.389Z,8.35
2023-04-05T21:56:19.448Z,8.85
2023-04-05T22:01:22.221Z,11.73
2023-04-05T22:06:24.645Z,8.75
2023-04-05T22:11:27.122Z,6.63
2023-04-05T22:16:29.699Z,7.53
2023-04-05T22:21:32.009Z,9.05
2023-04-05T22:26:34.269Z,6.60
2023-04-05T22:31:36.969Z,7.28
2023-04-05T22:36:39.162Z,11.23
2023-04-05T22:41:41.703Z,10.02
2023-04-05T22:46:44.008Z,9.45
2023-04-05T22:51:46.247Z,6.30
2023-04-05T22:56:48.442Z,6.25
2023-04-05T23:01:50.809Z,7.47
2023-04-05T23:06:53.086Z,7.20
2023-04-05T23:11:55.357Z,4.43
2023-04-05T23:16:57.632Z,7.22
2023-04-05T23:21:59.962Z,6.10
2023-04-05T23:27:02.392Z,4.40
2023-04-05T23:32:06.380Z,5.80
2023-04-05T23:37:08.540Z,6.60
2023-04-05T23:42:11.438Z,6.78
2023-04-05T23:47:13.684Z,5.50
2023-04-05T23:52:15.941Z,5.57
2023-04-05T23:57:18.067Z,11.25
